Shady Beach, South Dakota
Current Conditions -  °F | °C
As of 7:54 AM on Monday 24 Nov 2014 (Local Time) from KVVV Reporting Station
Light Snow Light Snow  
Wind Chill: -21°   Ceiling: 2400
Heat Index: -11°   Visibility: 7mi
Dew Point: -14°   Wind: 21mph
Humidity: 79%   Direction: 320°NW
Pressure: 29.61"   Gusts: 33mph
Location:  45.3641°N, 96.6682°W
Report Text: KVVV 241354Z AUTO 32018G29KT 7SM -SN OVC024 M11/M14 A2961 RMK AO2
Loading
Personal Weather Stations






























Interactive Weather Map New forecast layout! Learn more

10-Day Weather Forecast

Advertisements
Track Severe Weather on mobile